sensor_id;sensor_type;location;lat;lon;timestamp;P1;durP1;ratioP1;P2;durP2;ratioP2
34836;SDS011;21053;50.848;4.652;2023-04-26T00:00:20;10.45;;;4.10;;
34836;SDS011;21053;50.848;4.652;2023-04-26T00:08:18;10.52;;;4.55;;
34836;SDS011;21053;50.848;4.652;2023-04-26T00:10:46;9.65;;;4.28;;
34836;SDS011;21053;50.848;4.652;2023-04-26T00:13:29;5.82;;;4.03;;
34836;SDS011;21053;50.848;4.652;2023-04-26T00:18:26;13.35;;;4.00;;
34836;SDS011;21053;50.848;4.652;2023-04-26T00:20:53;13.35;;;4.15;;
34836;SDS011;21053;50.848;4.652;2023-04-26T00:25:48;11.57;;;5.03;;
34836;SDS011;21053;50.848;4.652;2023-04-26T00:28:28;7.35;;;4.00;;
34836;SDS011;21053;50.848;4.652;2023-04-26T00:30:54;8.88;;;4.28;;
34836;SDS011;21053;50.848;4.652;2023-04-26T00:33:24;11.57;;;4.43;;
34836;SDS011;21053;50.848;4.652;2023-04-26T00:38:19;14.15;;;4.47;;
34836;SDS011;21053;50.848;4.652;2023-04-26T00:43:16;8.73;;;4.07;;
34836;SDS011;21053;50.848;4.652;2023-04-26T00:45:42;11.25;;;3.90;;
34836;SDS011;21053;50.848;4.652;2023-04-26T00:48:11;11.55;;;3.88;;
34836;SDS011;21053;50.848;4.652;2023-04-26T00:50:37;10.90;;;4.28;;
34836;SDS011;21053;50.848;4.652;2023-04-26T00:53:04;6.18;;;3.80;;
34836;SDS011;21053;50.848;4.652;2023-04-26T00:58:04;16.65;;;4.45;;
34836;SDS011;21053;50.848;4.652;2023-04-26T01:00:31;10.13;;;4.03;;
34836;SDS011;21053;50.848;4.652;2023-04-26T01:02:58;8.55;;;3.85;;
34836;SDS011;21053;50.848;4.652;2023-04-26T01:07:54;14.65;;;4.75;;
34836;SDS011;21053;50.848;4.652;2023-04-26T01:12:52;8.18;;;3.90;;
34836;SDS011;21053;50.848;4.652;2023-04-26T01:15:25;7.05;;;4.18;;
34836;SDS011;21053;50.848;4.652;2023-04-26T01:17:53;8.75;;;4.30;;
34836;SDS011;21053;50.848;4.652;2023-04-26T01:22:48;11.88;;;4.40;;
34836;SDS011;21053;50.848;4.652;2023-04-26T01:25:14;11.00;;;4.78;;
34836;SDS011;21053;50.848;4.652;2023-04-26T01:27:44;13.45;;;4.78;;
34836;SDS011;21053;50.848;4.652;2023-04-26T01:30:16;11.00;;;4.68;;
34836;SDS011;21053;50.848;4.652;2023-04-26T01:37:43;9.68;;;4.15;;
34836;SDS011;21053;50.848;4.652;2023-04-26T01:40:08;9.18;;;4.15;;
34836;SDS011;21053;50.848;4.652;2023-04-26T01:42:38;7.35;;;4.00;;
34836;SDS011;21053;50.848;4.652;2023-04-26T01:45:10;6.97;;;3.88;;
34836;SDS011;21053;50.848;4.652;2023-04-26T01:47:46;13.15;;;4.60;;
34836;SDS011;21053;50.848;4.652;2023-04-26T01:55:09;15.95;;;4.97;;
34836;SDS011;21053;50.848;4.652;2023-04-26T01:57:38;10.43;;;4.93;;
34836;SDS011;21053;50.848;4.652;2023-04-26T02:00:06;10.95;;;4.72;;
34836;SDS011;21053;50.848;4.652;2023-04-26T02:02:36;10.50;;;4.70;;
34836;SDS011;21053;50.848;4.652;2023-04-26T02:05:01;9.35;;;4.78;;
34836;SDS011;21053;50.848;4.652;2023-04-26T02:07:27;10.52;;;4.55;;
34836;SDS011;21053;50.848;4.652;2023-04-26T02:09:55;9.55;;;4.57;;
34836;SDS011;21053;50.848;4.652;2023-04-26T02:22:39;11.15;;;5.30;;
34836;SDS011;21053;50.848;4.652;2023-04-26T02:25:11;8.63;;;4.55;;
34836;SDS011;21053;50.848;4.652;2023-04-26T02:27:40;11.48;;;4.75;;
34836;SDS011;21053;50.848;4.652;2023-04-26T02:30:16;11.85;;;5.68;;
34836;SDS011;21053;50.848;4.652;2023-04-26T02:35:13;23.70;;;5.25;;
34836;SDS011;21053;50.848;4.652;2023-04-26T02:37:40;12.25;;;4.90;;
34836;SDS011;21053;50.848;4.652;2023-04-26T02:40:08;11.23;;;4.97;;
34836;SDS011;21053;50.848;4.652;2023-04-26T02:55:05;19.30;;;5.25;;
34836;SDS011;21053;50.848;4.652;2023-04-26T02:57:31;10.85;;;4.50;;
34836;SDS011;21053;50.848;4.652;2023-04-26T02:59:57;17.80;;;4.88;;
34836;SDS011;21053;50.848;4.652;2023-04-26T03:02:23;8.73;;;4.90;;
34836;SDS011;21053;50.848;4.652;2023-04-26T03:04:50;12.80;;;5.38;;
34836;SDS011;21053;50.848;4.652;2023-04-26T03:12:16;12.98;;;4.93;;
34836;SDS011;21053;50.848;4.652;2023-04-26T03:20:44;20.17;;;6.15;;
34836;SDS011;21053;50.848;4.652;2023-04-26T03:23:12;19.38;;;6.82;;
34836;SDS011;21053;50.848;4.652;2023-04-26T03:25:38;18.35;;;6.65;;
34836;SDS011;21053;50.848;4.652;2023-04-26T03:28:07;12.75;;;6.30;;
34836;SDS011;21053;50.848;4.652;2023-04-26T03:30:35;12.02;;;5.60;;
34836;SDS011;21053;50.848;4.652;2023-04-26T03:33:03;12.95;;;5.53;;
34836;SDS011;21053;50.848;4.652;2023-04-26T03:35:29;14.23;;;5.70;;
34836;SDS011;21053;50.848;4.652;2023-04-26T03:37:58;22.83;;;6.43;;
34836;SDS011;21053;50.848;4.652;2023-04-26T03:40:30;14.35;;;6.00;;
34836;SDS011;21053;50.848;4.652;2023-04-26T03:42:59;14.88;;;6.30;;
34836;SDS011;21053;50.848;4.652;2023-04-26T03:45:25;14.13;;;5.93;;
34836;SDS011;21053;50.848;4.652;2023-04-26T03:47:54;12.43;;;5.57;;
34836;SDS011;21053;50.848;4.652;2023-04-26T03:50:21;16.30;;;6.32;;
34836;SDS011;21053;50.848;4.652;2023-04-26T03:52:47;14.93;;;5.65;;
34836;SDS011;21053;50.848;4.652;2023-04-26T03:55:13;14.35;;;5.95;;
34836;SDS011;21053;50.848;4.652;2023-04-26T03:57:40;14.00;;;5.90;;
34836;SDS011;21053;50.848;4.652;2023-04-26T04:00:05;12.75;;;6.13;;
34836;SDS011;21053;50.848;4.652;2023-04-26T04:02:38;15.45;;;5.35;;
34836;SDS011;21053;50.848;4.652;2023-04-26T04:07:37;25.20;;;6.65;;
34836;SDS011;21053;50.848;4.652;2023-04-26T04:13:25;15.95;;;6.00;;
34836;SDS011;21053;50.848;4.652;2023-04-26T04:18:42;18.77;;;6.25;;
34836;SDS011;21053;50.848;4.652;2023-04-26T04:21:10;11.98;;;6.32;;
34836;SDS011;21053;50.848;4.652;2023-04-26T04:23:36;13.95;;;6.57;;
34836;SDS011;21053;50.848;4.652;2023-04-26T04:26:03;15.32;;;6.97;;
34836;SDS011;21053;50.848;4.652;2023-04-26T04:28:32;15.93;;;7.53;;
34836;SDS011;21053;50.848;4.652;2023-04-26T04:30:59;12.88;;;6.63;;
34836;SDS011;21053;50.848;4.652;2023-04-26T04:33:26;11.60;;;6.18;;
34836;SDS011;21053;50.848;4.652;2023-04-26T04:35:58;18.20;;;6.88;;
34836;SDS011;21053;50.848;4.652;2023-04-26T04:38:25;17.25;;;6.95;;
34836;SDS011;21053;50.848;4.652;2023-04-26T04:40:57;14.05;;;6.45;;
34836;SDS011;21053;50.848;4.652;2023-04-26T04:45:55;12.18;;;6.05;;
34836;SDS011;21053;50.848;4.652;2023-04-26T04:50:53;15.10;;;6.57;;
34836;SDS011;21053;50.848;4.652;2023-04-26T04:55:50;18.00;;;6.22;;
34836;SDS011;21053;50.848;4.652;2023-04-26T05:00:47;13.80;;;6.60;;
34836;SDS011;21053;50.848;4.652;2023-04-26T05:03:20;13.75;;;6.43;;
34836;SDS011;21053;50.848;4.652;2023-04-26T05:08:18;13.88;;;6.63;;
34836;SDS011;21053;50.848;4.652;2023-04-26T05:13:16;13.27;;;6.40;;
34836;SDS011;21053;50.848;4.652;2023-04-26T05:15:41;12.88;;;6.40;;
34836;SDS011;21053;50.848;4.652;2023-04-26T05:18:10;14.93;;;6.72;;
34836;SDS011;21053;50.848;4.652;2023-04-26T05:20:37;18.88;;;6.75;;
34836;SDS011;21053;50.848;4.652;2023-04-26T05:23:03;12.30;;;6.68;;
34836;SDS011;21053;50.848;4.652;2023-04-26T05:28:01;14.77;;;6.15;;
34836;SDS011;21053;50.848;4.652;2023-04-26T05:30:27;17.42;;;6.50;;
34836;SDS011;21053;50.848;4.652;2023-04-26T05:32:54;16.55;;;6.47;;
34836;SDS011;21053;50.848;4.652;2023-04-26T05:37:49;26.17;;;7.15;;
34836;SDS011;21053;50.848;4.652;2023-04-26T05:40:19;16.65;;;7.03;;
34836;SDS011;21053;50.848;4.652;2023-04-26T05:42:45;11.30;;;6.68;;
34836;SDS011;21053;50.848;4.652;2023-04-26T05:45:15;12.27;;;6.70;;
34836;SDS011;21053;50.848;4.652;2023-04-26T05:52:47;13.20;;;6.32;;
34836;SDS011;21053;50.848;4.652;2023-04-26T05:55:15;42.58;;;8.68;;
34836;SDS011;21053;50.848;4.652;2023-04-26T06:00:11;13.82;;;6.70;;
34836;SDS011;21053;50.848;4.652;2023-04-26T06:02:40;15.32;;;6.72;;
34836;SDS011;21053;50.848;4.652;2023-04-26T06:05:12;15.50;;;6.72;;
34836;SDS011;21053;50.848;4.652;2023-04-26T06:07:38;20.80;;;7.10;;
34836;SDS011;21053;50.848;4.652;2023-04-26T06:12:37;17.52;;;7.97;;
34836;SDS011;21053;50.848;4.652;2023-04-26T06:15:03;17.98;;;7.40;;
34836;SDS011;21053;50.848;4.652;2023-04-26T06:17:32;24.05;;;7.65;;
34836;SDS011;21053;50.848;4.652;2023-04-26T06:19:59;17.65;;;7.75;;
34836;SDS011;21053;50.848;4.652;2023-04-26T06:22:25;15.95;;;7.15;;
34836;SDS011;21053;50.848;4.652;2023-04-26T06:24:53;13.30;;;6.75;;
34836;SDS011;21053;50.848;4.652;2023-04-26T06:27:21;16.80;;;7.10;;
34836;SDS011;21053;50.848;4.652;2023-04-26T06:29:49;13.90;;;6.95;;
34836;SDS011;21053;50.848;4.652;2023-04-26T06:32:15;23.70;;;7.45;;
34836;SDS011;21053;50.848;4.652;2023-04-26T06:34:41;17.80;;;7.50;;
34836;SDS011;21053;50.848;4.652;2023-04-26T06:37:11;13.80;;;6.57;;
34836;SDS011;21053;50.848;4.652;2023-04-26T06:39:38;15.95;;;7.63;;
34836;SDS011;21053;50.848;4.652;2023-04-26T06:42:05;25.20;;;8.05;;
34836;SDS011;21053;50.848;4.652;2023-04-26T06:44:37;22.08;;;7.90;;
34836;SDS011;21053;50.848;4.652;2023-04-26T06:47:05;18.98;;;7.88;;
34836;SDS011;21053;50.848;4.652;2023-04-26T06:52:03;28.30;;;8.23;;
34836;SDS011;21053;50.848;4.652;2023-04-26T06:54:34;14.98;;;7.85;;
34836;SDS011;21053;50.848;4.652;2023-04-26T06:59:29;14.93;;;7.45;;
34836;SDS011;21053;50.848;4.652;2023-04-26T07:04:25;17.52;;;8.60;;
34836;SDS011;21053;50.848;4.652;2023-04-26T07:06:51;23.65;;;8.85;;
34836;SDS011;21053;50.848;4.652;2023-04-26T07:11:46;21.58;;;8.57;;
34836;SDS011;21053;50.848;4.652;2023-04-26T07:14:13;19.35;;;7.65;;
34836;SDS011;21053;50.848;4.652;2023-04-26T07:16:41;19.10;;;8.55;;
34836;SDS011;21053;50.848;4.652;2023-04-26T07:19:07;20.98;;;8.55;;
34836;SDS011;21053;50.848;4.652;2023-04-26T07:21:35;21.13;;;9.30;;
34836;SDS011;21053;50.848;4.652;2023-04-26T07:24:00;22.73;;;8.70;;
34836;SDS011;21053;50.848;4.652;2023-04-26T07:28:55;24.55;;;8.85;;
34836;SDS011;21053;50.848;4.652;2023-04-26T07:31:23;20.05;;;8.68;;
34836;SDS011;21053;50.848;4.652;2023-04-26T07:33:52;21.10;;;8.40;;
34836;SDS011;21053;50.848;4.652;2023-04-26T07:36:18;20.65;;;8.63;;
34836;SDS011;21053;50.848;4.652;2023-04-26T07:38:47;16.17;;;8.07;;
34836;SDS011;21053;50.848;4.652;2023-04-26T07:41:12;25.58;;;9.10;;
34836;SDS011;21053;50.848;4.652;2023-04-26T07:46:11;22.75;;;8.85;;
34836;SDS011;21053;50.848;4.652;2023-04-26T07:48:36;15.43;;;7.68;;
34836;SDS011;21053;50.848;4.652;2023-04-26T07:51:07;28.30;;;8.95;;
34836;SDS011;21053;50.848;4.652;2023-04-26T07:53:36;18.95;;;8.50;;
34836;SDS011;21053;50.848;4.652;2023-04-26T07:58:37;22.48;;;8.50;;
34836;SDS011;21053;50.848;4.652;2023-04-26T08:01:04;17.88;;;8.13;;
34836;SDS011;21053;50.848;4.652;2023-04-26T08:03:31;15.43;;;6.82;;
34836;SDS011;21053;50.848;4.652;2023-04-26T08:06:00;19.92;;;7.38;;
34836;SDS011;21053;50.848;4.652;2023-04-26T08:08:27;22.40;;;6.25;;
34836;SDS011;21053;50.848;4.652;2023-04-26T08:10:53;22.42;;;6.18;;
34836;SDS011;21053;50.848;4.652;2023-04-26T08:13:20;16.48;;;6.07;;
34836;SDS011;21053;50.848;4.652;2023-04-26T08:15:47;19.75;;;5.82;;
34836;SDS011;21053;50.848;4.652;2023-04-26T08:18:14;18.98;;;4.57;;
34836;SDS011;21053;50.848;4.652;2023-04-26T08:20:40;11.07;;;4.47;;
34836;SDS011;21053;50.848;4.652;2023-04-26T08:23:06;15.63;;;5.40;;
34836;SDS011;21053;50.848;4.652;2023-04-26T08:25:34;14.05;;;5.28;;
34836;SDS011;21053;50.848;4.652;2023-04-26T08:29:00;16.95;;;4.63;;
34836;SDS011;21053;50.848;4.652;2023-04-26T08:31:26;20.10;;;3.83;;
34836;SDS011;21053;50.848;4.652;2023-04-26T08:33:52;8.85;;;3.92;;
34836;SDS011;21053;50.848;4.652;2023-04-26T08:36:18;13.75;;;4.25;;
34836;SDS011;21053;50.848;4.652;2023-04-26T08:38:46;17.02;;;3.75;;
34836;SDS011;21053;50.848;4.652;2023-04-26T08:41:13;9.98;;;3.17;;
34836;SDS011;21053;50.848;4.652;2023-04-26T08:43:45;25.33;;;3.83;;
34836;SDS011;21053;50.848;4.652;2023-04-26T08:48:44;18.50;;;4.20;;
34836;SDS011;21053;50.848;4.652;2023-04-26T08:51:19;12.10;;;4.25;;
34836;SDS011;21053;50.848;4.652;2023-04-26T08:53:46;15.10;;;4.22;;
34836;SDS011;21053;50.848;4.652;2023-04-26T08:56:17;17.77;;;3.60;;
34836;SDS011;21053;50.848;4.652;2023-04-26T09:01:18;17.70;;;3.97;;
34836;SDS011;21053;50.848;4.652;2023-04-26T09:03:45;16.77;;;3.90;;
34836;SDS011;21053;50.848;4.652;2023-04-26T09:06:13;12.70;;;3.70;;
34836;SDS011;21053;50.848;4.652;2023-04-26T09:08:39;11.68;;;3.55;;
34836;SDS011;21053;50.848;4.652;2023-04-26T09:11:06;13.70;;;3.53;;
34836;SDS011;21053;50.848;4.652;2023-04-26T09:13:32;12.18;;;3.63;;
34836;SDS011;21053;50.848;4.652;2023-04-26T09:15:58;12.77;;;3.60;;
34836;SDS011;21053;50.848;4.652;2023-04-26T09:18:24;14.73;;;3.75;;
34836;SDS011;21053;50.848;4.652;2023-04-26T09:21:03;13.02;;;3.65;;
34836;SDS011;21053;50.848;4.652;2023-04-26T09:23:32;16.95;;;4.43;;
34836;SDS011;21053;50.848;4.652;2023-04-26T09:29:13;12.68;;;3.70;;
34836;SDS011;21053;50.848;4.652;2023-04-26T09:31:42;13.68;;;3.45;;
34836;SDS011;21053;50.848;4.652;2023-04-26T09:34:10;8.85;;;2.72;;
34836;SDS011;21053;50.848;4.652;2023-04-26T09:36:55;13.88;;;3.35;;
34836;SDS011;21053;50.848;4.652;2023-04-26T09:41:59;14.30;;;3.72;;
34836;SDS011;21053;50.848;4.652;2023-04-26T09:44:27;11.13;;;3.55;;
34836;SDS011;21053;50.848;4.652;2023-04-26T09:46:57;12.95;;;3.17;;
34836;SDS011;21053;50.848;4.652;2023-04-26T09:49:47;13.73;;;2.83;;
34836;SDS011;21053;50.848;4.652;2023-04-26T09:52:17;11.00;;;3.33;;
34836;SDS011;21053;50.848;4.652;2023-04-26T09:54:54;12.00;;;3.03;;
34836;SDS011;21053;50.848;4.652;2023-04-26T09:57:20;14.88;;;3.53;;
34836;SDS011;21053;50.848;4.652;2023-04-26T09:59:52;14.18;;;2.92;;
34836;SDS011;21053;50.848;4.652;2023-04-26T10:02:29;7.25;;;3.00;;
34836;SDS011;21053;50.848;4.652;2023-04-26T10:04:55;37.83;;;3.70;;
34836;SDS011;21053;50.848;4.652;2023-04-26T10:07:24;13.15;;;3.10;;
34836;SDS011;21053;50.848;4.652;2023-04-26T10:09:56;16.40;;;2.97;;
34836;SDS011;21053;50.848;4.652;2023-04-26T10:12:24;10.32;;;3.40;;
34836;SDS011;21053;50.848;4.652;2023-04-26T10:14:55;16.33;;;3.38;;
34836;SDS011;21053;50.848;4.652;2023-04-26T10:17:25;11.20;;;2.97;;
34836;SDS011;21053;50.848;4.652;2023-04-26T10:19:54;11.98;;;3.13;;
34836;SDS011;21053;50.848;4.652;2023-04-26T10:22:23;11.52;;;3.13;;
34836;SDS011;21053;50.848;4.652;2023-04-26T10:24:56;5.97;;;2.97;;
34836;SDS011;21053;50.848;4.652;2023-04-26T10:30:22;8.10;;;3.50;;
34836;SDS011;21053;50.848;4.652;2023-04-26T10:35:20;11.55;;;3.55;;
34836;SDS011;21053;50.848;4.652;2023-04-26T10:40:26;17.45;;;3.42;;
34836;SDS011;21053;50.848;4.652;2023-04-26T10:45:44;14.30;;;5.40;;
34836;SDS011;21053;50.848;4.652;2023-04-26T10:48:21;12.65;;;3.20;;
34836;SDS011;21053;50.848;4.652;2023-04-26T10:56:49;10.05;;;3.53;;
34836;SDS011;21053;50.848;4.652;2023-04-26T10:59:33;14.05;;;3.13;;
34836;SDS011;21053;50.848;4.652;2023-04-26T11:08:31;12.95;;;3.22;;
34836;SDS011;21053;50.848;4.652;2023-04-26T11:13:29;11.02;;;2.92;;
34836;SDS011;21053;50.848;4.652;2023-04-26T11:19:06;5.82;;;2.70;;
34836;SDS011;21053;50.848;4.652;2023-04-26T11:21:39;13.55;;;5.25;;
34836;SDS011;21053;50.848;4.652;2023-04-26T11:24:13;8.00;;;2.78;;
34836;SDS011;21053;50.848;4.652;2023-04-26T11:26:40;9.23;;;2.60;;
34836;SDS011;21053;50.848;4.652;2023-04-26T11:29:06;12.65;;;2.80;;
34836;SDS011;21053;50.848;4.652;2023-04-26T11:31:34;10.55;;;2.72;;
34836;SDS011;21053;50.848;4.652;2023-04-26T11:34:04;5.88;;;2.58;;
34836;SDS011;21053;50.848;4.652;2023-04-26T11:36:31;5.55;;;2.63;;
34836;SDS011;21053;50.848;4.652;2023-04-26T11:38:57;9.40;;;3.05;;
34836;SDS011;21053;50.848;4.652;2023-04-26T11:41:23;8.93;;;2.63;;
34836;SDS011;21053;50.848;4.652;2023-04-26T11:43:48;8.60;;;3.00;;
34836;SDS011;21053;50.848;4.652;2023-04-26T11:46:14;11.38;;;3.05;;
34836;SDS011;21053;50.848;4.652;2023-04-26T11:48:40;9.50;;;2.38;;
34836;SDS011;21053;50.848;4.652;2023-04-26T11:51:07;8.80;;;3.08;;
34836;SDS011;21053;50.848;4.652;2023-04-26T12:05:35;10.10;;;3.00;;
34836;SDS011;21053;50.848;4.652;2023-04-26T12:08:01;6.25;;;2.72;;
34836;SDS011;21053;50.848;4.652;2023-04-26T12:10:34;10.43;;;2.90;;
34836;SDS011;21053;50.848;4.652;2023-04-26T12:13:04;9.55;;;3.20;;
34836;SDS011;21053;50.848;4.652;2023-04-26T12:15:33;8.55;;;3.03;;
34836;SDS011;21053;50.848;4.652;2023-04-26T12:18:11;12.05;;;3.50;;
34836;SDS011;21053;50.848;4.652;2023-04-26T12:20:40;12.30;;;3.10;;
34836;SDS011;21053;50.848;4.652;2023-04-26T12:23:13;11.77;;;3.30;;
34836;SDS011;21053;50.848;4.652;2023-04-26T12:25:56;12.25;;;2.70;;
34836;SDS011;21053;50.848;4.652;2023-04-26T12:28:27;7.20;;;2.72;;
34836;SDS011;21053;50.848;4.652;2023-04-26T12:33:34;13.05;;;2.97;;
34836;SDS011;21053;50.848;4.652;2023-04-26T12:38:36;10.90;;;2.88;;
34836;SDS011;21053;50.848;4.652;2023-04-26T12:41:06;20.48;;;3.17;;
34836;SDS011;21053;50.848;4.652;2023-04-26T12:43:33;5.93;;;3.00;;
34836;SDS011;21053;50.848;4.652;2023-04-26T12:46:00;11.57;;;3.40;;
34836;SDS011;21053;50.848;4.652;2023-04-26T12:48:26;16.45;;;3.35;;
34836;SDS011;21053;50.848;4.652;2023-04-26T12:50:53;14.35;;;4.35;;
34836;SDS011;21053;50.848;4.652;2023-04-26T12:53:20;10.52;;;3.55;;
34836;SDS011;21053;50.848;4.652;2023-04-26T12:58:18;13.10;;;3.38;;
34836;SDS011;21053;50.848;4.652;2023-04-26T13:00:44;11.20;;;3.25;;
34836;SDS011;21053;50.848;4.652;2023-04-26T13:03:12;13.80;;;2.97;;
34836;SDS011;21053;50.848;4.652;2023-04-26T13:05:39;8.32;;;3.00;;
34836;SDS011;21053;50.848;4.652;2023-04-26T13:08:05;7.00;;;3.17;;
34836;SDS011;21053;50.848;4.652;2023-04-26T13:10:32;7.35;;;3.28;;
34836;SDS011;21053;50.848;4.652;2023-04-26T13:15:28;13.13;;;3.20;;
34836;SDS011;21053;50.848;4.652;2023-04-26T13:17:56;10.27;;;3.10;;
34836;SDS011;21053;50.848;4.652;2023-04-26T13:20:24;9.60;;;3.30;;
34836;SDS011;21053;50.848;4.652;2023-04-26T13:22:53;8.40;;;2.95;;
34836;SDS011;21053;50.848;4.652;2023-04-26T13:25:22;11.38;;;3.42;;
34836;SDS011;21053;50.848;4.652;2023-04-26T13:30:17;11.88;;;3.20;;
34836;SDS011;21053;50.848;4.652;2023-04-26T13:35:13;13.60;;;3.28;;
34836;SDS011;21053;50.848;4.652;2023-04-26T13:37:39;11.52;;;3.30;;
34836;SDS011;21053;50.848;4.652;2023-04-26T13:40:07;12.85;;;3.42;;
34836;SDS011;21053;50.848;4.652;2023-04-26T13:42:35;12.18;;;4.07;;
34836;SDS011;21053;50.848;4.652;2023-04-26T13:45:02;9.20;;;3.10;;
34836;SDS011;21053;50.848;4.652;2023-04-26T13:50:01;7.50;;;3.08;;
34836;SDS011;21053;50.848;4.652;2023-04-26T13:52:30;11.23;;;3.70;;
34836;SDS011;21053;50.848;4.652;2023-04-26T13:54:56;9.40;;;3.28;;
34836;SDS011;21053;50.848;4.652;2023-04-26T13:57:25;7.97;;;2.67;;
34836;SDS011;21053;50.848;4.652;2023-04-26T14:02:20;10.35;;;3.30;;
34836;SDS011;21053;50.848;4.652;2023-04-26T14:09:43;8.32;;;3.15;;
34836;SDS011;21053;50.848;4.652;2023-04-26T14:12:09;8.55;;;3.10;;
34836;SDS011;21053;50.848;4.652;2023-04-26T14:14:37;20.13;;;3.40;;
34836;SDS011;21053;50.848;4.652;2023-04-26T14:19:33;7.15;;;3.45;;
34836;SDS011;21053;50.848;4.652;2023-04-26T14:21:58;7.10;;;3.00;;
34836;SDS011;21053;50.848;4.652;2023-04-26T14:24:28;11.55;;;2.90;;
34836;SDS011;21053;50.848;4.652;2023-04-26T14:26:54;11.60;;;3.55;;
34836;SDS011;21053;50.848;4.652;2023-04-26T14:29:24;10.68;;;3.20;;
34836;SDS011;21053;50.848;4.652;2023-04-26T14:31:51;10.68;;;3.30;;
34836;SDS011;21053;50.848;4.652;2023-04-26T14:34:20;12.00;;;3.13;;
34836;SDS011;21053;50.848;4.652;2023-04-26T14:36:47;9.45;;;3.28;;
34836;SDS011;21053;50.848;4.652;2023-04-26T14:39:16;12.10;;;3.30;;
34836;SDS011;21053;50.848;4.652;2023-04-26T14:41:42;16.10;;;3.58;;
34836;SDS011;21053;50.848;4.652;2023-04-26T14:44:10;16.30;;;3.55;;
34836;SDS011;21053;50.848;4.652;2023-04-26T14:46:39;11.27;;;3.20;;
34836;SDS011;21053;50.848;4.652;2023-04-26T14:49:06;12.20;;;3.33;;
34836;SDS011;21053;50.848;4.652;2023-04-26T14:51:35;15.73;;;3.88;;
34836;SDS011;21053;50.848;4.652;2023-04-26T14:54:01;11.52;;;3.30;;
34836;SDS011;21053;50.848;4.652;2023-04-26T14:56:31;8.13;;;3.17;;
34836;SDS011;21053;50.848;4.652;2023-04-26T14:58:59;7.55;;;2.97;;
34836;SDS011;21053;50.848;4.652;2023-04-26T15:01:29;12.65;;;3.38;;
34836;SDS011;21053;50.848;4.652;2023-04-26T15:04:01;13.20;;;3.25;;
34836;SDS011;21053;50.848;4.652;2023-04-26T15:06:27;11.05;;;2.85;;
34836;SDS011;21053;50.848;4.652;2023-04-26T15:08:56;8.40;;;3.15;;
34836;SDS011;21053;50.848;4.652;2023-04-26T15:11:24;9.90;;;2.85;;
34836;SDS011;21053;50.848;4.652;2023-04-26T15:13:53;22.02;;;3.63;;
34836;SDS011;21053;50.848;4.652;2023-04-26T15:21:18;11.38;;;3.53;;
34836;SDS011;21053;50.848;4.652;2023-04-26T15:23:47;9.40;;;3.15;;
34836;SDS011;21053;50.848;4.652;2023-04-26T15:26:13;9.98;;;3.60;;
34836;SDS011;21053;50.848;4.652;2023-04-26T15:28:39;8.45;;;2.90;;
34836;SDS011;21053;50.848;4.652;2023-04-26T15:31:08;14.95;;;3.50;;
34836;SDS011;21053;50.848;4.652;2023-04-26T15:33:34;12.32;;;3.42;;
34836;SDS011;21053;50.848;4.652;2023-04-26T15:36:02;11.40;;;3.47;;
34836;SDS011;21053;50.848;4.652;2023-04-26T15:38:29;9.40;;;3.17;;
34836;SDS011;21053;50.848;4.652;2023-04-26T15:40:57;7.63;;;3.15;;
34836;SDS011;21053;50.848;4.652;2023-04-26T15:43:23;8.90;;;2.90;;
34836;SDS011;21053;50.848;4.652;2023-04-26T15:48:21;12.45;;;3.60;;
34836;SDS011;21053;50.848;4.652;2023-04-26T15:50:53;9.43;;;4.03;;
34836;SDS011;21053;50.848;4.652;2023-04-26T15:53:22;8.95;;;3.55;;
34836;SDS011;21053;50.848;4.652;2023-04-26T15:55:51;11.70;;;4.00;;
34836;SDS011;21053;50.848;4.652;2023-04-26T15:58:19;23.60;;;4.90;;
34836;SDS011;21053;50.848;4.652;2023-04-26T16:00:48;16.67;;;6.22;;
34836;SDS011;21053;50.848;4.652;2023-04-26T16:05:43;11.57;;;3.80;;
34836;SDS011;21053;50.848;4.652;2023-04-26T16:08:10;15.38;;;3.42;;
34836;SDS011;21053;50.848;4.652;2023-04-26T16:10:39;14.25;;;3.88;;
34836;SDS011;21053;50.848;4.652;2023-04-26T16:13:08;15.82;;;2.80;;
34836;SDS011;21053;50.848;4.652;2023-04-26T16:15:34;11.48;;;3.22;;
34836;SDS011;21053;50.848;4.652;2023-04-26T16:18:02;6.75;;;2.65;;
34836;SDS011;21053;50.848;4.652;2023-04-26T16:22:59;10.00;;;3.22;;
34836;SDS011;21053;50.848;4.652;2023-04-26T16:25:27;10.40;;;2.67;;
34836;SDS011;21053;50.848;4.652;2023-04-26T16:27:54;7.50;;;3.00;;
34836;SDS011;21053;50.848;4.652;2023-04-26T16:30:20;19.27;;;3.50;;
34836;SDS011;21053;50.848;4.652;2023-04-26T16:32:49;11.27;;;3.60;;
34836;SDS011;21053;50.848;4.652;2023-04-26T16:35:17;10.40;;;3.45;;
34836;SDS011;21053;50.848;4.652;2023-04-26T16:37:44;9.10;;;3.47;;
34836;SDS011;21053;50.848;4.652;2023-04-26T16:40:10;12.70;;;3.25;;
34836;SDS011;21053;50.848;4.652;2023-04-26T16:42:38;11.40;;;3.22;;
34836;SDS011;21053;50.848;4.652;2023-04-26T16:45:09;13.35;;;2.80;;
34836;SDS011;21053;50.848;4.652;2023-04-26T16:47:38;14.23;;;3.17;;
34836;SDS011;21053;50.848;4.652;2023-04-26T16:50:03;12.00;;;3.17;;
34836;SDS011;21053;50.848;4.652;2023-04-26T16:54:59;10.18;;;3.30;;
34836;SDS011;21053;50.848;4.652;2023-04-26T16:57:32;12.40;;;3.38;;
34836;SDS011;21053;50.848;4.652;2023-04-26T16:59:59;10.05;;;3.17;;
34836;SDS011;21053;50.848;4.652;2023-04-26T17:02:26;11.02;;;2.88;;
34836;SDS011;21053;50.848;4.652;2023-04-26T17:04:54;7.90;;;2.85;;
34836;SDS011;21053;50.848;4.652;2023-04-26T17:07:21;7.72;;;3.08;;
34836;SDS011;21053;50.848;4.652;2023-04-26T17:09:54;7.40;;;3.15;;
34836;SDS011;21053;50.848;4.652;2023-04-26T17:12:23;19.85;;;3.20;;
34836;SDS011;21053;50.848;4.652;2023-04-26T17:14:48;8.40;;;2.78;;
34836;SDS011;21053;50.848;4.652;2023-04-26T17:17:14;11.85;;;3.17;;
34836;SDS011;21053;50.848;4.652;2023-04-26T17:19:40;8.63;;;2.97;;
34836;SDS011;21053;50.848;4.652;2023-04-26T17:22:09;8.30;;;3.08;;
34836;SDS011;21053;50.848;4.652;2023-04-26T17:24:38;15.05;;;3.30;;
34836;SDS011;21053;50.848;4.652;2023-04-26T17:27:04;17.42;;;3.72;;
34836;SDS011;21053;50.848;4.652;2023-04-26T17:29:30;10.07;;;3.40;;
34836;SDS011;21053;50.848;4.652;2023-04-26T17:31:58;12.90;;;3.22;;
34836;SDS011;21053;50.848;4.652;2023-04-26T17:34:26;10.27;;;3.00;;
34836;SDS011;21053;50.848;4.652;2023-04-26T17:36:52;8.38;;;3.60;;
34836;SDS011;21053;50.848;4.652;2023-04-26T17:39:17;8.07;;;3.13;;
34836;SDS011;21053;50.848;4.652;2023-04-26T17:41:44;8.75;;;3.13;;
34836;SDS011;21053;50.848;4.652;2023-04-26T17:44:11;14.57;;;3.40;;
34836;SDS011;21053;50.848;4.652;2023-04-26T17:49:05;7.40;;;3.28;;
34836;SDS011;21053;50.848;4.652;2023-04-26T17:51:31;12.18;;;4.00;;
34836;SDS011;21053;50.848;4.652;2023-04-26T17:53:59;15.63;;;4.82;;
34836;SDS011;21053;50.848;4.652;2023-04-26T17:56:25;7.50;;;3.97;;
34836;SDS011;21053;50.848;4.652;2023-04-26T17:58:53;6.53;;;3.72;;
34836;SDS011;21053;50.848;4.652;2023-04-26T18:01:18;9.80;;;3.42;;
34836;SDS011;21053;50.848;4.652;2023-04-26T18:03:45;11.38;;;3.45;;
34836;SDS011;21053;50.848;4.652;2023-04-26T18:06:12;12.93;;;3.53;;
34836;SDS011;21053;50.848;4.652;2023-04-26T18:08:38;10.90;;;3.22;;
34836;SDS011;21053;50.848;4.652;2023-04-26T18:11:04;9.63;;;3.47;;
34836;SDS011;21053;50.848;4.652;2023-04-26T18:13:30;17.67;;;3.85;;
34836;SDS011;21053;50.848;4.652;2023-04-26T18:15:57;11.13;;;3.55;;
34836;SDS011;21053;50.848;4.652;2023-04-26T18:18:24;9.32;;;4.00;;
34836;SDS011;21053;50.848;4.652;2023-04-26T18:20:51;9.68;;;3.70;;
34836;SDS011;21053;50.848;4.652;2023-04-26T18:23:18;12.40;;;3.70;;
34836;SDS011;21053;50.848;4.652;2023-04-26T18:25:50;15.88;;;4.15;;
34836;SDS011;21053;50.848;4.652;2023-04-26T18:28:15;20.65;;;4.18;;